Weather at Karakol Airport

Public forecast

Using degrees Celsius for public forecast. Weather courtesy of forecast.io.

Closest aviation weather report (METAR) to Karakol Airport

Closest report is Almaty International Airport, 78.6 nm (145.6 km) NW.

2022/12/03 03:00 (retrieved 32 minutes ago)

UAAA 030300Z 21003MPS 5000 BR OVC007 M06/M07 Q1026 NOSIG

Closest aviation forecast (TAF) to Karakol Airport

Forecast is more than 6 hours old.

Closest forecast is Leh Kushok Bakula Rimpochee Airport, 504.3 nm (934.0 km) S.

2022/12/02 18:00 (retrieved 10 hours ago)

TAF VILH 020930Z 0218/0312 VRB02KT 6000 FEW070 SCT120 BKN150 BECMG 0304/0306 FEW120 SCT150